sensor_id;sensor_type;location;lat;lon;timestamp;pressure;altitude;pressure_sealevel;temperature;humidity
36242;BME280;22283;42.748;12.732;2023-02-12T00:04:34;99730.13;;;-1.95;76.29
36242;BME280;22283;42.748;12.732;2023-02-12T00:09:38;99724.03;;;-2.07;75.89
36242;BME280;22283;42.748;12.732;2023-02-12T00:14:38;99722.28;;;-2.14;76.67
36242;BME280;22283;42.748;12.732;2023-02-12T00:19:39;99733.50;;;-2.18;77.34
36242;BME280;22283;42.748;12.732;2023-02-12T00:24:40;99733.50;;;-2.18;77.45
36242;BME280;22283;42.748;12.732;2023-02-12T00:29:40;99738.69;;;-2.18;78.12
36242;BME280;22283;42.748;12.732;2023-02-12T00:34:41;99734.34;;;-2.24;77.59
36242;BME280;22283;42.748;12.732;2023-02-12T00:39:42;99740.34;;;-2.35;78.03
36242;BME280;22283;42.748;12.732;2023-02-12T00:44:44;99737.69;;;-2.48;80.61
36242;BME280;22283;42.748;12.732;2023-02-12T00:49:45;99749.78;;;-2.47;82.16
36242;BME280;22283;42.748;12.732;2023-02-12T00:54:46;99747.22;;;-2.42;82.68
36242;BME280;22283;42.748;12.732;2023-02-12T00:59:47;99733.41;;;-2.39;81.15
36242;BME280;22283;42.748;12.732;2023-02-12T01:04:48;99744.66;;;-2.39;81.84
36242;BME280;22283;42.748;12.732;2023-02-12T01:09:49;99747.28;;;-2.28;80.23
36242;BME280;22283;42.748;12.732;2023-02-12T01:14:49;99751.53;;;-2.42;80.92
36242;BME280;22283;42.748;12.732;2023-02-12T01:19:50;99753.22;;;-2.51;82.53
36242;BME280;22283;42.748;12.732;2023-02-12T01:24:56;99752.34;;;-2.56;83.72
36242;BME280;22283;42.748;12.732;2023-02-12T01:29:56;99742.81;;;-2.60;82.54
36242;BME280;22283;42.748;12.732;2023-02-12T01:34:57;99735.91;;;-2.59;82.04
36242;BME280;22283;42.748;12.732;2023-02-12T01:39:58;99741.97;;;-2.60;82.09
36242;BME280;22283;42.748;12.732;2023-02-12T01:50:17;99735.00;;;-2.67;82.96
36242;BME280;22283;42.748;12.732;2023-02-12T01:55:20;99727.19;;;-2.77;83.35
36242;BME280;22283;42.748;12.732;2023-02-12T02:00:23;99721.81;;;-3.03;85.03
36242;BME280;22283;42.748;12.732;2023-02-12T02:05:36;99719.22;;;-3.09;85.55
36242;BME280;22283;42.748;12.732;2023-02-12T02:10:38;99716.66;;;-3.01;86.65
36242;BME280;22283;42.748;12.732;2023-02-12T02:15:40;99721.03;;;-2.95;86.33
36242;BME280;22283;42.748;12.732;2023-02-12T02:31:25;99700.22;;;-3.08;87.17
36242;BME280;22283;42.748;12.732;2023-02-12T02:36:40;99691.59;;;-3.07;87.14
36242;BME280;22283;42.748;12.732;2023-02-12T02:41:49;99678.66;;;-3.07;86.19
36242;BME280;22283;42.748;12.732;2023-02-12T02:46:55;99683.81;;;-3.07;86.40
36242;BME280;22283;42.748;12.732;2023-02-12T02:52:06;99672.59;;;-3.06;85.91
36242;BME280;22283;42.748;12.732;2023-02-12T02:57:12;99674.38;;;-3.05;86.66
36242;BME280;22283;42.748;12.732;2023-02-12T03:02:36;99651.00;;;-3.12;86.31
36242;BME280;22283;42.748;12.732;2023-02-12T03:07:41;99638.06;;;-3.09;86.78
36242;BME280;22283;42.748;12.732;2023-02-12T03:17:52;99643.13;;;-3.29;88.24
36242;BME280;22283;42.748;12.732;2023-02-12T03:23:00;99662.03;;;-3.39;88.85
36242;BME280;22283;42.748;12.732;2023-02-12T03:28:09;99651.66;;;-3.42;88.95
36242;BME280;22283;42.748;12.732;2023-02-12T03:38:40;99643.00;;;-3.44;90.06
36242;BME280;22283;42.748;12.732;2023-02-12T03:43:51;99638.81;;;-3.32;89.65
36242;BME280;22283;42.748;12.732;2023-02-12T03:54:20;99637.00;;;-3.43;89.86
36242;BME280;22283;42.748;12.732;2023-02-12T03:59:23;99662.03;;;-3.39;89.85
36242;BME280;22283;42.748;12.732;2023-02-12T04:04:25;99646.41;;;-3.53;90.51
36242;BME280;22283;42.748;12.732;2023-02-12T04:09:26;99658.41;;;-3.63;90.68
36242;BME280;22283;42.748;12.732;2023-02-12T04:14:40;99636.69;;;-3.80;91.65
36242;BME280;22283;42.748;12.732;2023-02-12T04:30:57;99642.91;;;-3.58;91.98
36242;BME280;22283;42.748;12.732;2023-02-12T04:36:10;99647.19;;;-3.62;93.36
36242;BME280;22283;42.748;12.732;2023-02-12T04:41:12;99621.31;;;-3.60;91.49
36242;BME280;22283;42.748;12.732;2023-02-12T04:46:13;99642.97;;;-3.51;90.80
36242;BME280;22283;42.748;12.732;2023-02-12T04:51:14;99623.91;;;-3.62;91.24
36242;BME280;22283;42.748;12.732;2023-02-12T04:56:15;99625.66;;;-3.58;90.91
36242;BME280;22283;42.748;12.732;2023-02-12T05:01:16;99644.66;;;-3.53;90.83
36242;BME280;22283;42.748;12.732;2023-02-12T05:06:17;99651.50;;;-3.61;91.97
36242;BME280;22283;42.748;12.732;2023-02-12T05:11:19;99637.69;;;-3.67;92.64
36242;BME280;22283;42.748;12.732;2023-02-12T05:16:20;99637.47;;;-3.89;92.76
36242;BME280;22283;42.748;12.732;2023-02-12T05:21:21;99641.75;;;-3.96;93.74
36242;BME280;22283;42.748;12.732;2023-02-12T05:26:22;99651.38;;;-3.76;96.01
36242;BME280;22283;42.748;12.732;2023-02-12T05:31:23;99646.91;;;-3.92;95.63
36242;BME280;22283;42.748;12.732;2023-02-12T05:36:25;99629.66;;;-3.97;95.96
36242;BME280;22283;42.748;12.732;2023-02-12T05:41:25;99645.22;;;-3.90;96.56
36242;BME280;22283;42.748;12.732;2023-02-12T05:46:26;99630.47;;;-4.01;96.19
36242;BME280;22283;42.748;12.732;2023-02-12T05:51:28;99650.19;;;-4.12;96.02
36242;BME280;22283;42.748;12.732;2023-02-12T05:56:36;99644.19;;;-4.11;96.32
36242;BME280;22283;42.748;12.732;2023-02-12T06:01:39;99642.34;;;-4.21;97.43
36242;BME280;22283;42.748;12.732;2023-02-12T06:06:41;99649.22;;;-4.23;97.70
36242;BME280;22283;42.748;12.732;2023-02-12T06:11:43;99644.22;;;-4.08;97.72
36242;BME280;22283;42.748;12.732;2023-02-12T06:16:45;99666.69;;;-3.99;97.15
36242;BME280;22283;42.748;12.732;2023-02-12T06:21:47;99654.53;;;-4.11;96.81
36242;BME280;22283;42.748;12.732;2023-02-12T06:26:49;99679.63;;;-3.99;96.99
36242;BME280;22283;42.748;12.732;2023-02-12T06:31:50;99690.88;;;-3.96;96.89
36242;BME280;22283;42.748;12.732;2023-02-12T06:36:51;99688.09;;;-4.15;97.32
36242;BME280;22283;42.748;12.732;2023-02-12T06:41:51;99690.75;;;-4.05;97.53
36242;BME280;22283;42.748;12.732;2023-02-12T06:46:52;99688.31;;;-3.91;96.99
36242;BME280;22283;42.748;12.732;2023-02-12T06:51:53;99675.56;;;-3.69;96.18
36242;BME280;22283;42.748;12.732;2023-02-12T06:56:54;99661.09;;;-3.52;95.28
36242;BME280;22283;42.748;12.732;2023-02-12T07:01:54;99688.13;;;-3.12;94.59
36242;BME280;22283;42.748;12.732;2023-02-12T07:06:55;99702.22;;;-2.64;93.19
36242;BME280;22283;42.748;12.732;2023-02-12T07:11:59;99707.56;;;-2.21;90.06
36242;BME280;22283;42.748;12.732;2023-02-12T07:16:59;99700.75;;;-1.84;86.09
36242;BME280;22283;42.748;12.732;2023-02-12T07:22:03;99682.63;;;-1.50;84.62
36242;BME280;22283;42.748;12.732;2023-02-12T07:27:04;99667.91;;;-1.28;82.84
36242;BME280;22283;42.748;12.732;2023-02-12T07:32:05;99686.06;;;-1.14;78.70
36242;BME280;22283;42.748;12.732;2023-02-12T07:37:07;99692.13;;;-1.14;79.83
36242;BME280;22283;42.748;12.732;2023-02-12T07:42:08;99684.34;;;-1.09;79.42
36242;BME280;22283;42.748;12.732;2023-02-12T07:47:08;99686.88;;;-0.83;79.14
36242;BME280;22283;42.748;12.732;2023-02-12T07:52:09;99695.44;;;-0.47;77.85
36242;BME280;22283;42.748;12.732;2023-02-12T07:57:10;99693.53;;;-0.07;74.11
36242;BME280;22283;42.748;12.732;2023-02-12T08:02:10;99695.03;;;0.32;70.59
36242;BME280;22283;42.748;12.732;2023-02-12T08:07:11;99680.91;;;0.59;69.49
36242;BME280;22283;42.748;12.732;2023-02-12T08:12:12;99689.44;;;0.81;68.20
36242;BME280;22283;42.748;12.732;2023-02-12T08:17:12;99691.94;;;0.92;67.72
36242;BME280;22283;42.748;12.732;2023-02-12T08:22:13;99699.53;;;1.13;67.08
36242;BME280;22283;42.748;12.732;2023-02-12T08:27:13;99689.91;;;1.23;64.83
36242;BME280;22283;42.748;12.732;2023-02-12T08:32:14;99703.63;;;1.40;62.57
36242;BME280;22283;42.748;12.732;2023-02-12T08:37:16;99691.97;;;1.69;61.08
36242;BME280;22283;42.748;12.732;2023-02-12T08:42:16;99688.13;;;1.97;60.67
36242;BME280;22283;42.748;12.732;2023-02-12T08:47:17;99679.19;;;2.15;60.38
36242;BME280;22283;42.748;12.732;2023-02-12T08:52:18;99689.41;;;2.29;59.48
36242;BME280;22283;42.748;12.732;2023-02-12T08:57:19;99685.63;;;2.49;59.03
36242;BME280;22283;42.748;12.732;2023-02-12T09:02:19;99683.56;;;2.69;58.12
36242;BME280;22283;42.748;12.732;2023-02-12T09:07:20;99692.78;;;2.91;58.55
36242;BME280;22283;42.748;12.732;2023-02-12T09:12:21;99688.78;;;3.20;57.90
36242;BME280;22283;42.748;12.732;2023-02-12T09:17:22;99676.13;;;3.45;57.14
36242;BME280;22283;42.748;12.732;2023-02-12T09:22:26;99693.78;;;3.77;56.58
36242;BME280;22283;42.748;12.732;2023-02-12T09:27:27;99687.13;;;4.03;55.24
36242;BME280;22283;42.748;12.732;2023-02-12T09:32:28;99684.56;;;4.40;53.22
36242;BME280;22283;42.748;12.732;2023-02-12T09:37:29;99673.28;;;4.72;51.23
36242;BME280;22283;42.748;12.732;2023-02-12T09:47:44;99679.22;;;4.80;50.92
36242;BME280;22283;42.748;12.732;2023-02-12T09:52:48;99682.78;;;5.12;50.24
36242;BME280;22283;42.748;12.732;2023-02-12T09:57:49;99678.13;;;5.22;50.75
36242;BME280;22283;42.748;12.732;2023-02-12T10:02:51;99673.19;;;5.42;51.21
36242;BME280;22283;42.748;12.732;2023-02-12T10:29:45;99689.03;;;5.70;49.86
36242;BME280;22283;42.748;12.732;2023-02-12T10:34:47;99694.34;;;6.00;48.86
36242;BME280;22283;42.748;12.732;2023-02-12T10:40:19;99696.06;;;6.58;47.20
36242;BME280;22283;42.748;12.732;2023-02-12T10:45:24;99685.50;;;6.86;46.03
36242;BME280;22283;42.748;12.732;2023-02-12T10:55:49;99668.19;;;6.79;45.09
36242;BME280;22283;42.748;12.732;2023-02-12T11:01:04;99665.72;;;6.75;44.71
36242;BME280;22283;42.748;12.732;2023-02-12T11:06:23;99663.94;;;7.27;43.65
36242;BME280;22283;42.748;12.732;2023-02-12T11:11:27;99649.22;;;7.93;41.99
36242;BME280;22283;42.748;12.732;2023-02-12T11:16:33;99624.03;;;8.30;41.84
36242;BME280;22283;42.748;12.732;2023-02-12T11:21:35;99611.56;;;8.77;40.61
36242;BME280;22283;42.748;12.732;2023-02-12T11:26:35;99609.47;;;8.85;38.18
36242;BME280;22283;42.748;12.732;2023-02-12T11:31:36;99595.66;;;8.79;37.89
36242;BME280;22283;42.748;12.732;2023-02-12T11:37:03;99597.72;;;9.13;37.48
36242;BME280;22283;42.748;12.732;2023-02-12T11:42:06;99592.78;;;9.45;37.30
36242;BME280;22283;42.748;12.732;2023-02-12T11:47:20;99583.06;;;9.45;37.73
36242;BME280;22283;42.748;12.732;2023-02-12T11:52:25;99584.94;;;9.81;38.83
36242;BME280;22283;42.748;12.732;2023-02-12T12:02:57;99569.06;;;9.62;37.26
36242;BME280;22283;42.748;12.732;2023-02-12T12:08:04;99565.94;;;9.73;37.72
36242;BME280;22283;42.748;12.732;2023-02-12T12:13:14;99554.22;;;9.97;36.48
36242;BME280;22283;42.748;12.732;2023-02-12T12:24:19;99557.53;;;10.20;35.65
36242;BME280;22283;42.748;12.732;2023-02-12T12:29:30;99541.09;;;10.13;35.24
36242;BME280;22283;42.748;12.732;2023-02-12T12:34:33;99530.22;;;10.19;34.74
36242;BME280;22283;42.748;12.732;2023-02-12T13:06:04;99497.06;;;10.48;31.46
36242;BME280;22283;42.748;12.732;2023-02-12T13:11:15;99490.75;;;10.51;31.82
36242;BME280;22283;42.748;12.732;2023-02-12T13:16:59;99503.50;;;10.77;32.08
36242;BME280;22283;42.748;12.732;2023-02-12T13:27:25;99490.13;;;10.63;30.68
36242;BME280;22283;42.748;12.732;2023-02-12T13:37:40;99485.53;;;10.67;31.31
36242;BME280;22283;42.748;12.732;2023-02-12T13:42:58;99485.47;;;10.51;31.64
36242;BME280;22283;42.748;12.732;2023-02-12T13:58:50;99484.69;;;10.66;32.83
36242;BME280;22283;42.748;12.732;2023-02-12T14:03:52;99475.59;;;10.88;32.26
36242;BME280;22283;42.748;12.732;2023-02-12T14:09:08;99485.53;;;11.00;31.52
36242;BME280;22283;42.748;12.732;2023-02-12T14:14:09;99468.53;;;11.04;31.29
36242;BME280;22283;42.748;12.732;2023-02-12T14:19:38;99480.09;;;11.03;30.36
36242;BME280;22283;42.748;12.732;2023-02-12T14:24:47;99477.16;;;10.92;31.85
36242;BME280;22283;42.748;12.732;2023-02-12T14:45:34;99492.16;;;9.87;34.75
36242;BME280;22283;42.748;12.732;2023-02-12T14:50:42;99484.25;;;9.68;35.11
36242;BME280;22283;42.748;12.732;2023-02-12T14:55:51;99472.25;;;9.61;35.70
36242;BME280;22283;42.748;12.732;2023-02-12T15:00:54;99464.78;;;9.52;35.63
36242;BME280;22283;42.748;12.732;2023-02-12T15:06:21;99464.84;;;9.31;36.55
36242;BME280;22283;42.748;12.732;2023-02-12T15:11:44;99473.75;;;9.10;36.74
36242;BME280;22283;42.748;12.732;2023-02-12T15:22:33;99477.47;;;8.87;37.56
36242;BME280;22283;42.748;12.732;2023-02-12T15:27:41;99499.50;;;8.66;38.70
36242;BME280;22283;42.748;12.732;2023-02-12T15:32:43;99493.41;;;8.43;38.70
36242;BME280;22283;42.748;12.732;2023-02-12T15:37:48;99495.81;;;8.27;39.06
36242;BME280;22283;42.748;12.732;2023-02-12T15:42:58;99498.00;;;8.40;38.56
36242;BME280;22283;42.748;12.732;2023-02-12T15:48:10;99493.75;;;8.35;40.22
36242;BME280;22283;42.748;12.732;2023-02-12T15:53:12;99498.63;;;8.02;42.27
36242;BME280;22283;42.748;12.732;2023-02-12T15:58:20;99503.22;;;7.53;43.95
36242;BME280;22283;42.748;12.732;2023-02-12T16:03:27;99503.00;;;7.12;44.25
36242;BME280;22283;42.748;12.732;2023-02-12T16:08:28;99502.59;;;7.00;44.88
36242;BME280;22283;42.748;12.732;2023-02-12T16:13:32;99502.31;;;6.59;45.50
36242;BME280;22283;42.748;12.732;2023-02-12T16:18:34;99514.63;;;6.32;46.61
36242;BME280;22283;42.748;12.732;2023-02-12T16:23:34;99507.81;;;6.00;47.71
36242;BME280;22283;42.748;12.732;2023-02-12T16:28:35;99528.50;;;5.82;49.31
36242;BME280;22283;42.748;12.732;2023-02-12T16:38:45;99542.75;;;5.14;51.15
36242;BME280;22283;42.748;12.732;2023-02-12T16:43:48;99551.19;;;4.94;52.29
36242;BME280;22283;42.748;12.732;2023-02-12T16:48:51;99555.47;;;4.66;53.67
36242;BME280;22283;42.748;12.732;2023-02-12T16:53:54;99560.22;;;4.52;53.46
36242;BME280;22283;42.748;12.732;2023-02-12T16:58:57;99556.84;;;4.47;53.45
36242;BME280;22283;42.748;12.732;2023-02-12T17:04:00;99575.06;;;4.17;54.43
36242;BME280;22283;42.748;12.732;2023-02-12T17:09:03;99567.75;;;3.94;55.48
36242;BME280;22283;42.748;12.732;2023-02-12T17:14:04;99561.94;;;3.81;55.27
36242;BME280;22283;42.748;12.732;2023-02-12T17:19:04;99575.81;;;3.85;55.55
36242;BME280;22283;42.748;12.732;2023-02-12T17:24:27;99577.28;;;3.58;55.37
36242;BME280;22283;42.748;12.732;2023-02-12T17:29:28;99585.50;;;3.41;55.93
36242;BME280;22283;42.748;12.732;2023-02-12T17:34:30;99584.63;;;3.40;55.88
36242;BME280;22283;42.748;12.732;2023-02-12T17:39:31;99595.63;;;3.14;57.03
36242;BME280;22283;42.748;12.732;2023-02-12T17:44:31;99597.34;;;3.15;56.74
36242;BME280;22283;42.748;12.732;2023-02-12T17:49:32;99605.63;;;2.92;57.42
36242;BME280;22283;42.748;12.732;2023-02-12T17:54:35;99602.50;;;2.74;58.21
36242;BME280;22283;42.748;12.732;2023-02-12T17:59:37;99617.41;;;2.67;57.23
36242;BME280;22283;42.748;12.732;2023-02-12T18:04:37;99611.69;;;2.45;58.43
36242;BME280;22283;42.748;12.732;2023-02-12T18:09:38;99601.44;;;2.33;58.92
36242;BME280;22283;42.748;12.732;2023-02-12T18:14:39;99607.63;;;2.27;58.85
36242;BME280;22283;42.748;12.732;2023-02-12T18:19:40;99620.78;;;2.21;60.20
36242;BME280;22283;42.748;12.732;2023-02-12T18:24:41;99616.53;;;2.15;60.28
36242;BME280;22283;42.748;12.732;2023-02-12T18:29:44;99613.25;;;2.01;60.21
36242;BME280;22283;42.748;12.732;2023-02-12T18:34:44;99611.13;;;2.26;58.28
36242;BME280;22283;42.748;12.732;2023-02-12T18:39:45;99625.41;;;2.04;58.88
36242;BME280;22283;42.748;12.732;2023-02-12T18:44:46;99625.56;;;1.90;59.40
36242;BME280;22283;42.748;12.732;2023-02-12T18:49:47;99636.16;;;1.82;60.08
36242;BME280;22283;42.748;12.732;2023-02-12T18:54:47;99636.44;;;2.22;68.86
36242;BME280;22283;42.748;12.732;2023-02-12T18:59:48;99634.19;;;2.54;61.19
36242;BME280;22283;42.748;12.732;2023-02-12T19:04:49;99628.41;;;2.86;59.55
36242;BME280;22283;42.748;12.732;2023-02-12T19:09:49;99622.22;;;2.40;59.13
36242;BME280;22283;42.748;12.732;2023-02-12T19:14:52;99640.88;;;2.68;58.71
36242;BME280;22283;42.748;12.732;2023-02-12T19:19:52;99653.94;;;2.70;59.20
36242;BME280;22283;42.748;12.732;2023-02-12T19:24:53;99640.31;;;2.51;56.82
36242;BME280;22283;42.748;12.732;2023-02-12T19:29:53;99645.28;;;2.12;57.48
36242;BME280;22283;42.748;12.732;2023-02-12T19:34:54;99646.50;;;1.88;57.77
36242;BME280;22283;42.748;12.732;2023-02-12T19:39:55;99647.78;;;1.57;59.24
36242;BME280;22283;42.748;12.732;2023-02-12T19:44:55;99656.66;;;1.42;59.42
36242;BME280;22283;42.748;12.732;2023-02-12T19:49:57;99655.53;;;1.63;58.31
36242;BME280;22283;42.748;12.732;2023-02-12T19:54:57;99654.47;;;1.78;57.76
36242;BME280;22283;42.748;12.732;2023-02-12T19:59:58;99660.00;;;1.55;58.84
36242;BME280;22283;42.748;12.732;2023-02-12T20:04:59;99658.09;;;1.67;57.08
36242;BME280;22283;42.748;12.732;2023-02-12T20:10:00;99656.06;;;1.88;57.55
36242;BME280;22283;42.748;12.732;2023-02-12T20:15:01;99669.69;;;1.43;58.43
36242;BME280;22283;42.748;12.732;2023-02-12T20:20:05;99686.38;;;1.27;59.50
36242;BME280;22283;42.748;12.732;2023-02-12T20:25:06;99679.56;;;1.15;59.98
36242;BME280;22283;42.748;12.732;2023-02-12T20:30:07;99685.69;;;1.10;60.00
36242;BME280;22283;42.748;12.732;2023-02-12T20:35:08;99683.81;;;1.24;59.97
36242;BME280;22283;42.748;12.732;2023-02-12T20:40:08;99684.84;;;1.06;60.93
36242;BME280;22283;42.748;12.732;2023-02-12T20:45:09;99692.63;;;1.09;60.27
36242;BME280;22283;42.748;12.732;2023-02-12T20:50:10;99696.31;;;0.91;61.01
36242;BME280;22283;42.748;12.732;2023-02-12T20:55:11;99698.16;;;0.77;61.81
36242;BME280;22283;42.748;12.732;2023-02-12T21:00:12;99703.47;;;0.65;63.38
36242;BME280;22283;42.748;12.732;2023-02-12T21:05:13;99714.63;;;0.78;62.53
36242;BME280;22283;42.748;12.732;2023-02-12T21:10:14;99718.09;;;0.78;62.20
36242;BME280;22283;42.748;12.732;2023-02-12T21:15:15;99715.69;;;0.54;63.88
36242;BME280;22283;42.748;12.732;2023-02-12T21:20:15;99716.53;;;0.57;63.89
36242;BME280;22283;42.748;12.732;2023-02-12T21:25:16;99711.88;;;0.94;61.78
36242;BME280;22283;42.748;12.732;2023-02-12T21:30:17;99711.84;;;1.01;61.75
36242;BME280;22283;42.748;12.732;2023-02-12T21:35:18;99714.72;;;0.71;62.96
36242;BME280;22283;42.748;12.732;2023-02-12T21:40:19;99724.38;;;0.56;64.13
36242;BME280;22283;42.748;12.732;2023-02-12T21:45:19;99719.09;;;0.65;63.79
36242;BME280;22283;42.748;12.732;2023-02-12T21:50:20;99713.00;;;0.67;64.15
36242;BME280;22283;42.748;12.732;2023-02-12T21:55:21;99710.47;;;0.57;64.51
36242;BME280;22283;42.748;12.732;2023-02-12T22:00:21;99713.16;;;0.43;66.42
36242;BME280;22283;42.748;12.732;2023-02-12T22:05:22;99703.56;;;0.49;66.18
36242;BME280;22283;42.748;12.732;2023-02-12T22:10:23;99720.09;;;0.45;66.66
36242;BME280;22283;42.748;12.732;2023-02-12T22:15:24;99727.06;;;0.45;67.23
36242;BME280;22283;42.748;12.732;2023-02-12T22:20:24;99731.50;;;0.23;69.55
36242;BME280;22283;42.748;12.732;2023-02-12T22:25:25;99741.97;;;0.20;70.69
36242;BME280;22283;42.748;12.732;2023-02-12T22:30:27;99743.75;;;0.09;71.80
36242;BME280;22283;42.748;12.732;2023-02-12T22:35:28;99738.47;;;0.21;71.47
36242;BME280;22283;42.748;12.732;2023-02-12T22:40:28;99751.44;;;0.30;70.86
36242;BME280;22283;42.748;12.732;2023-02-12T22:45:29;99755.72;;;0.40;71.64
36242;BME280;22283;42.748;12.732;2023-02-12T22:50:30;99748.66;;;0.55;70.79
36242;BME280;22283;42.748;12.732;2023-02-12T22:55:31;99752.22;;;0.44;71.83
36242;BME280;22283;42.748;12.732;2023-02-12T23:00:32;99762.59;;;0.51;72.53
36242;BME280;22283;42.748;12.732;2023-02-12T23:05:37;99752.16;;;0.51;72.24
36242;BME280;22283;42.748;12.732;2023-02-12T23:10:37;99759.22;;;0.36;73.62
36242;BME280;22283;42.748;12.732;2023-02-12T23:15:38;99758.34;;;0.40;74.26
36242;BME280;22283;42.748;12.732;2023-02-12T23:20:39;99766.94;;;0.52;73.07
36242;BME280;22283;42.748;12.732;2023-02-12T23:25:40;99776.63;;;0.28;75.02
36242;BME280;22283;42.748;12.732;2023-02-12T23:30:41;99781.97;;;-0.09;76.92
36242;BME280;22283;42.748;12.732;2023-02-12T23:35:43;99784.66;;;-0.30;78.83
36242;BME280;22283;42.748;12.732;2023-02-12T23:40:44;99790.72;;;-0.28;80.77
36242;BME280;22283;42.748;12.732;2023-02-12T23:45:46;99788.09;;;-0.28;81.04
36242;BME280;22283;42.748;12.732;2023-02-12T23:50:47;99778.63;;;-0.44;81.29
36242;BME280;22283;42.748;12.732;2023-02-12T23:55:48;99789.00;;;-0.26;81.39
